Time;durP1;ratioP1;P1;durP2;ratioP2;P2;SDS_P1;SDS_P2;PMS_P1;PMS_P2;Temp;Humidity;BMP_temperature;BMP_pressure;BME280_temperature;BME280_humidity;BME280_pressure;Samples;Min_cycle;Max_cycle;Signal;HPM_P1;HPM_P2
2024/04/01 00:01:59;;;;;;;20.90;5.50;;;;;;;16.46;48.58;100075.69;105231;1254;62429;-53
2024/04/01 00:04:26;;;;;;;21.50;5.10;;;;;;;16.44;48.69;100068.49;105596;1254;61542;-53
2024/04/01 00:06:54;;;;;;;13.70;5.10;;;;;;;16.42;48.78;100071.88;105156;1254;61364;-53
2024/04/01 00:09:22;;;;;;;16.40;5.40;;;;;;;16.40;48.99;100073.23;105200;1253;65664;-55
2024/04/01 00:11:49;;;;;;;19.40;5.70;;;;;;;16.35;48.92;100063.59;105185;1258;61237;-54
2024/04/01 00:14:17;;;;;;;20.00;4.60;;;;;;;16.31;49.17;100054.38;105215;1254;64309;-54
2024/04/01 00:16:44;;;;;;;13.40;4.60;;;;;;;16.27;49.11;100058.46;105236;1257;62312;-56
2024/04/01 00:19:11;;;;;;;14.40;5.10;;;;;;;16.24;49.18;100057.57;105087;1259;61102;-53
2024/04/01 00:21:39;;;;;;;16.00;4.50;;;;;;;16.21;49.26;100036.16;105138;1260;66222;-53
2024/04/01 00:24:06;;;;;;;18.10;4.90;;;;;;;16.16;49.47;100037.00;105286;1254;61362;-52
2024/04/01 00:26:34;;;;;;;18.60;4.90;;;;;;;16.11;49.62;100053.96;105343;1254;62474;-55
2024/04/01 00:29:02;;;;;;;13.40;4.40;;;;;;;16.08;49.56;100057.18;105211;1257;61444;-53
2024/04/01 00:31:30;;;;;;;15.20;4.70;;;;;;;16.06;49.64;100038.11;105173;1253;61164;-52
2024/04/01 00:33:57;;;;;;;12.10;4.70;;;;;;;16.04;49.66;100060.46;105239;1254;65907;-52
2024/04/01 00:36:25;;;;;;;14.90;5.20;;;;;;;16.00;49.71;100045.88;105202;1254;62346;-53
2024/04/01 00:38:55;;;;;;;15.30;5.30;;;;;;;15.94;49.88;100043.61;105173;1254;63859;-54
2024/04/01 00:41:24;;;;;;;13.10;4.80;;;;;;;15.91;50.11;100045.73;105618;1254;61338;-53
2024/04/01 00:43:51;;;;;;;11.90;4.30;;;;;;;15.89;50.16;100050.08;105175;1254;61160;-55
2024/04/01 00:46:19;;;;;;;19.60;5.40;;;;;;;15.88;50.18;100042.19;105053;1254;64484;-53
2024/04/01 00:48:47;;;;;;;15.00;5.20;;;;;;;15.86;50.14;100036.39;108273;1256;68768;-53
2024/04/01 00:51:16;;;;;;;21.60;5.80;;;;;;;15.85;50.41;100036.51;105965;1259;73613;-53
2024/04/01 00:53:44;;;;;;;13.80;5.10;;;;;;;15.85;50.47;100035.48;107720;1254;60915;-53
2024/04/01 00:56:12;;;;;;;15.10;4.50;;;;;;;15.85;50.44;100036.29;105119;1259;61312;-51
2024/04/01 00:58:39;;;;;;;15.50;5.20;;;;;;;15.85;50.51;100022.12;106000;1255;65715;-51
2024/04/01 01:01:07;;;;;;;18.50;4.60;;;;;;;15.83;50.47;100016.76;105217;1257;61300;-54
2024/04/01 01:03:34;;;;;;;18.10;5.00;;;;;;;15.78;50.61;100017.02;105147;1257;62549;-52
2024/04/01 01:06:03;;;;;;;17.10;4.80;;;;;;;15.74;50.58;100012.20;105247;1257;61336;-53
2024/04/01 01:08:30;;;;;;;14.00;5.60;;;;;;;15.68;50.73;100013.14;105602;1259;61253;-54
2024/04/01 01:10:58;;;;;;;16.80;4.90;;;;;;;15.66;50.84;100012.47;105398;1258;65690;-53
2024/04/01 01:13:25;;;;;;;14.60;4.40;;;;;;;15.69;50.90;99995.16;105197;1254;61275;-52
2024/04/01 01:15:53;;;;;;;15.40;5.40;;;;;;;15.74;50.88;99991.50;105274;1254;63674;-53
2024/04/01 01:18:20;;;;;;;21.70;5.70;;;;;;;15.74;50.92;99992.05;105207;1257;61454;-53
2024/04/01 01:20:48;;;;;;;22.30;5.90;;;;;;;15.74;50.93;99988.12;105860;1254;61420;-53
2024/04/01 01:23:15;;;;;;;13.20;4.70;;;;;;;15.77;50.99;99989.20;105253;1258;65692;-54
2024/04/01 01:25:43;;;;;;;14.30;5.30;;;;;;;15.78;50.98;99992.35;105126;1259;61545;-55
2024/04/01 01:28:10;;;;;;;23.80;5.90;;;;;;;15.77;50.90;99989.69;105143;1254;62522;-55
2024/04/01 01:30:38;;;;;;;16.40;5.20;;;;;;;15.77;50.89;99984.12;105077;1257;61374;-54
2024/04/01 01:33:09;;;;;;;16.00;4.90;;;;;;;15.73;50.84;99973.95;105122;1254;61191;-55
2024/04/01 01:35:36;;;;;;;16.00;4.90;;;;;;;15.65;50.99;99971.60;105224;1254;65742;-53
2024/04/01 01:38:04;;;;;;;11.70;4.60;;;;;;;15.59;51.01;99964.94;105426;1254;61667;-52
2024/04/01 01:40:31;;;;;;;17.60;4.90;;;;;;;15.56;51.17;99958.04;105083;1257;63725;-53
2024/04/01 01:42:59;;;;;;;15.10;5.10;;;;;;;15.51;51.39;99954.19;105234;1254;61160;-52
2024/04/01 01:45:27;;;;;;;15.70;5.90;;;;;;;15.45;51.35;99961.20;106426;1252;59692;-52
2024/04/01 01:47:55;;;;;;;17.60;5.50;;;;;;;15.39;51.52;99974.47;105202;1255;75275;-52
2024/04/01 01:50:22;;;;;;;16.20;4.60;;;;;;;15.37;51.65;99979.70;105933;1251;62088;-53
2024/04/01 01:52:50;;;;;;;18.70;5.40;;;;;;;15.33;51.70;99976.38;105449;1254;63769;-55
2024/04/01 01:55:17;;;;;;;20.20;5.70;;;;;;;15.32;51.73;99982.53;105364;1251;61340;-56
2024/04/01 01:57:45;;;;;;;14.80;4.80;;;;;;;15.34;51.75;99989.96;105450;1251;61268;-53
2024/04/01 02:00:13;;;;;;;17.20;5.40;;;;;;;15.36;51.69;99997.16;105226;1258;64614;-51
2024/04/01 02:02:41;;;;;;;14.90;4.80;;;;;;;15.37;51.84;100003.36;105400;1251;62031;-53
2024/04/01 02:05:08;;;;;;;19.80;5.90;;;;;;;15.38;51.79;100003.98;105434;1256;63779;-52
2024/04/01 02:07:36;;;;;;;18.60;5.40;;;;;;;15.37;51.79;100004.13;105468;1257;61320;-53
2024/04/01 02:10:04;;;;;;;18.00;5.30;;;;;;;15.35;51.80;100006.07;105141;1256;60601;-52
2024/04/01 02:12:31;;;;;;;16.20;5.20;;;;;;;15.32;51.89;99992.59;105450;1252;66523;-53
2024/04/01 02:14:59;;;;;;;21.30;5.70;;;;;;;15.29;51.92;99980.91;105382;1257;61304;-53
2024/04/01 02:17:26;;;;;;;17.70;5.40;;;;;;;15.27;51.94;99980.21;105257;1254;63770;-53
2024/04/01 02:19:54;;;;;;;20.60;4.90;;;;;;;15.24;52.10;99969.04;105127;1252;61352;-53
2024/04/01 02:22:22;;;;;;;14.60;5.00;;;;;;;15.21;52.08;99969.38;105426;1257;61229;-55
2024/04/01 02:24:50;;;;;;;17.60;5.50;;;;;;;15.20;52.08;99974.44;105949;1251;64485;-52
2024/04/01 02:27:17;;;;;;;29.80;5.80;;;;;;;15.17;52.14;99972.05;105427;1257;61367;-53
2024/04/01 02:29:45;;;;;;;17.40;4.90;;;;;;;15.13;52.19;99977.99;105328;1257;62747;-52
2024/04/01 02:32:12;;;;;;;16.30;5.00;;;;;;;15.09;52.30;99987.42;105416;1254;61291;-52
2024/04/01 02:34:40;;;;;;;17.10;5.50;;;;;;;15.10;52.30;99987.52;105291;1251;61365;-52
2024/04/01 02:37:07;;;;;;;15.40;5.00;;;;;;;15.15;52.31;99982.77;109358;1250;65779;-53
2024/04/01 02:39:35;;;;;;;17.00;4.90;;;;;;;15.18;52.25;99981.22;105585;1256;61303;-53
2024/04/01 02:42:02;;;;;;;13.70;5.00;;;;;;;15.16;52.24;99981.36;105241;1251;63764;-53
2024/04/01 02:44:30;;;;;;;18.50;5.20;;;;;;;15.15;52.24;99984.63;105501;1251;61372;-53
2024/04/01 02:46:57;;;;;;;18.20;4.80;;;;;;;15.14;52.37;99989.53;105412;1253;62058;-54
2024/04/01 02:49:25;;;;;;;21.40;6.10;;;;;;;15.11;52.23;99986.71;105422;1251;65788;-53
2024/04/01 02:51:53;;;;;;;19.40;5.40;;;;;;;15.06;52.33;99980.84;106669;1256;61288;-53
2024/04/01 02:54:20;;;;;;;16.00;5.40;;;;;;;15.00;52.48;99981.48;105184;1255;62498;-53
2024/04/01 02:56:48;;;;;;;18.50;5.30;;;;;;;14.96;52.57;99975.58;106065;1254;61361;-54
2024/04/01 02:59:15;;;;;;;20.60;5.30;;;;;;;14.92;52.65;99972.98;105484;1251;61316;-52
2024/04/01 03:01:43;;;;;;;14.60;5.40;;;;;;;14.88;52.70;99975.16;105318;1252;64490;-53
2024/04/01 03:04:10;;;;;;;19.80;5.60;;;;;;;14.83;52.79;99979.14;105411;1252;61361;-53
2024/04/01 03:06:38;;;;;;;14.80;5.10;;;;;;;14.80;52.85;99979.30;105523;1254;63777;-53
2024/04/01 03:09:05;;;;;;;19.20;5.20;;;;;;;14.81;52.86;99985.79;105585;1253;61443;-53
2024/04/01 03:11:33;;;;;;;24.30;6.40;;;;;;;14.83;52.97;99992.09;105481;1256;61237;-53
2024/04/01 03:14:00;;;;;;;23.50;5.90;;;;;;;14.83;53.05;99984.81;105535;1252;64523;-54
2024/04/01 03:16:27;;;;;;;16.40;5.00;;;;;;;14.81;53.05;99983.11;105244;1251;61730;-53
2024/04/01 03:18:56;;;;;;;18.60;6.00;;;;;;;14.80;53.07;99986.38;105396;1253;63721;-52
2024/04/01 03:21:23;;;;;;;15.40;5.70;;;;;;;14.77;53.08;99979.95;105945;1254;61391;-53
2024/04/01 03:23:52;;;;;;;15.10;5.20;;;;;;;14.74;53.17;99981.16;105412;1256;61398;-51
2024/04/01 03:26:20;;;;;;;19.80;5.20;;;;;;;14.73;53.17;99986.05;105466;1256;65976;-53
2024/04/01 03:28:47;;;;;;;15.10;4.80;;;;;;;14.70;53.21;99979.52;105376;1252;61366;-53
2024/04/01 03:31:15;;;;;;;20.30;5.10;;;;;;;14.66;53.23;99978.88;106077;1254;62636;-50
2024/04/01 03:33:44;;;;;;;16.70;5.40;;;;;;;14.62;53.42;99977.14;105593;1256;61455;-50
2024/04/01 03:36:12;;;;;;;15.00;5.20;;;;;;;14.57;53.39;99981.34;107138;1252;61350;-50
2024/04/01 03:38:39;;;;;;;16.40;5.20;;;;;;;14.51;53.57;99980.15;105465;1256;64404;-51
2024/04/01 03:41:07;;;;;;;15.10;4.50;;;;;;;14.50;53.62;99981.89;105496;1257;69030;-51
2024/04/01 03:43:35;;;;;;;20.30;6.30;;;;;;;14.51;53.69;99980.67;105554;1252;63776;-53
2024/04/01 03:46:04;;;;;;;19.40;5.30;;;;;;;14.51;53.76;99975.20;105440;1254;61421;-53
2024/04/01 03:48:34;;;;;;;20.70;5.60;;;;;;;14.48;53.75;99978.39;105319;1258;61314;-52
2024/04/01 03:51:02;;;;;;;19.50;5.10;;;;;;;14.46;53.88;99982.13;105798;1252;66616;-53
2024/04/01 03:53:30;;;;;;;19.70;5.90;;;;;;;14.46;53.98;99977.84;105445;1256;61255;-53
2024/04/01 03:55:57;;;;;;;20.10;5.70;;;;;;;14.47;53.96;99979.02;105849;1257;62520;-51
2024/04/01 03:58:25;;;;;;;14.10;5.40;;;;;;;14.45;53.93;99982.16;105522;1251;61368;-50
2024/04/01 04:00:52;;;;;;;16.10;5.40;;;;;;;14.43;54.03;99981.69;105288;1257;61231;-51
2024/04/01 04:03:20;;;;;;;20.60;5.70;;;;;;;14.41;54.09;99982.21;105388;1251;65825;-52
2024/04/01 04:05:48;;;;;;;16.30;4.60;;;;;;;14.39;54.06;99981.36;105304;1256;61342;-53
2024/04/01 04:08:15;;;;;;;19.60;5.40;;;;;;;14.40;53.97;99980.38;106816;1254;64091;-51
2024/04/01 04:10:48;;;;;;;22.30;5.00;;;;;;;14.44;54.09;99978.41;106937;1251;61227;-51
2024/04/01 04:13:15;;;;;;;17.10;5.50;;;;;;;14.48;54.19;99981.21;105315;1252;61164;-51
2024/04/01 04:15:43;;;;;;;19.10;5.40;;;;;;;14.52;54.20;99983.98;105247;1251;66658;-51
2024/04/01 04:18:10;;;;;;;19.40;6.20;;;;;;;14.53;54.14;99989.16;105365;1254;61439;-52
2024/04/01 04:20:38;;;;;;;24.10;6.00;;;;;;;14.53;54.10;99990.58;105432;1255;62600;-52
2024/04/01 04:23:06;;;;;;;15.60;5.60;;;;;;;14.52;54.26;99987.26;105496;1252;61313;-51
2024/04/01 04:25:34;;;;;;;17.70;5.80;;;;;;;14.51;54.38;99980.17;105503;1257;61170;-54
2024/04/01 04:28:01;;;;;;;19.10;6.10;;;;;;;14.50;54.39;99983.40;105678;1257;66296;-54
2024/04/01 04:30:29;;;;;;;13.60;5.30;;;;;;;14.52;54.50;99989.80;105641;1256;61246;-53
2024/04/01 04:32:58;;;;;;;17.70;5.50;;;;;;;14.52;54.37;99992.44;105304;1258;63803;-50
2024/04/01 04:35:28;;;;;;;17.20;5.20;;;;;;;14.57;54.36;99992.25;105355;1251;61094;-52
2024/04/01 04:37:57;;;;;;;16.70;6.30;;;;;;;14.65;54.20;99991.69;105380;1252;61408;-53
2024/04/01 04:40:30;;;;;;;18.50;4.90;;;;;;;14.70;54.14;99989.02;106015;1252;64850;-54
2024/04/01 04:42:59;;;;;;;23.60;7.20;;;;;;;14.72;53.97;99989.36;105920;1256;63633;-53
2024/04/01 04:45:28;;;;;;;18.30;6.30;;;;;;;14.72;53.98;99991.63;107512;1254;62824;-56
2024/04/01 04:47:57;;;;;;;19.30;5.70;;;;;;;14.73;54.05;99992.26;105863;1252;61349;-51
2024/04/01 04:50:27;;;;;;;18.30;5.60;;;;;;;14.77;54.00;99989.23;105336;1256;60825;-55
2024/04/01 04:52:56;;;;;;;19.50;6.20;;;;;;;14.79;54.00;99991.81;105238;1257;66273;-56
2024/04/01 04:55:25;;;;;;;22.60;7.00;;;;;;;14.81;54.00;99993.33;107584;1251;62094;-54
2024/04/01 04:57:54;;;;;;;19.00;6.20;;;;;;;14.83;54.03;99992.98;105413;1257;64002;-57
2024/04/01 05:00:22;;;;;;;18.70;5.80;;;;;;;14.84;53.98;99994.08;105274;1256;61250;-59
2024/04/01 05:02:52;;;;;;;16.10;4.90;;;;;;;14.89;53.93;99992.50;105294;1251;61401;-56
2024/04/01 05:05:20;;;;;;;19.40;6.30;;;;;;;14.98;53.96;99990.15;105431;1257;65812;-58
2024/04/01 05:07:48;;;;;;;20.90;6.40;;;;;;;15.05;53.87;99984.30;106847;1256;62518;-58
2024/04/01 05:10:16;;;;;;;19.30;6.40;;;;;;;15.12;53.81;99983.63;109142;1251;63711;-62
2024/04/01 05:12:43;;;;;;;14.60;5.90;;;;;;;15.18;53.58;99975.13;109298;1251;59300;-57
2024/04/01 05:15:11;;;;;;;19.50;6.50;;;;;;;15.23;53.48;99972.85;109327;1252;59124;-62
2024/04/01 05:17:38;;;;;;;21.20;6.70;;;;;;;15.28;53.49;99971.50;109330;1255;65764;-56
2024/04/01 05:20:07;;;;;;;17.70;6.60;;;;;;;15.31;53.36;99974.13;109326;1251;61524;-55
2024/04/01 05:22:34;;;;;;;20.40;6.70;;;;;;;15.36;53.29;99972.95;109257;1252;64275;-55
2024/04/01 05:25:01;;;;;;;22.00;6.70;;;;;;;15.40;53.32;99969.63;108059;1256;60462;-57
2024/04/01 05:27:29;;;;;;;17.50;5.50;;;;;;;15.45;53.21;99967.21;105472;1257;61272;-59
2024/04/01 05:30:03;;;;;;;20.40;6.20;;;;;;;15.48;52.93;99968.44;105276;1256;64660;-53
2024/04/01 05:32:31;;;;;;;20.50;5.70;;;;;;;15.48;52.89;99964.00;105406;1256;62044;-57
2024/04/01 05:34:59;;;;;;;28.60;6.10;;;;;;;15.53;52.82;99970.02;105715;1254;62515;-63
2024/04/01 05:37:28;;;;;;;17.60;6.90;;;;;;;15.59;52.85;99975.56;106437;1257;61329;-63
2024/04/01 05:39:59;;;;;;;16.10;6.10;;;;;;;15.61;52.73;99979.39;105538;1254;61108;-61
2024/04/01 05:42:27;;;;;;;17.70;5.60;;;;;;;15.63;52.76;99977.99;105270;1254;65142;-59
2024/04/01 05:45:00;;;;;;;21.90;6.60;;;;;;;15.64;52.69;99977.07;105499;1256;61131;-66
2024/04/01 05:47:36;;;;;;;;;;;;;;;15.63;52.54;99975.05;107699;1251;62438;-59
2024/04/01 05:50:09;;;;;;;21.50;6.90;;;;;;;15.62;52.83;99970.13;107244;1253;61294;-60
2024/04/01 05:52:51;;;;;;;17.20;6.70;;;;;;;15.65;52.94;99972.42;108120;1253;60908;-61
2024/04/01 05:55:28;;;;;;;16.80;6.00;;;;;;;15.70;52.78;99971.40;108508;1254;64681;-60
2024/04/01 05:57:56;;;;;;;15.80;6.10;;;;;;;15.75;52.56;99974.40;105606;1258;61481;-60
2024/04/01 06:00:24;;;;;;;15.40;5.70;;;;;;;15.77;52.55;99974.52;105287;1257;62485;-64
2024/04/01 06:02:53;;;;;;;17.80;6.00;;;;;;;15.81;52.67;99972.75;105199;1257;61382;-65
2024/04/01 06:05:20;;;;;;;17.90;6.20;;;;;;;15.91;52.53;99972.34;105289;1257;61352;-62
2024/04/01 06:07:48;;;;;;;22.30;6.30;;;;;;;16.01;52.23;99964.53;105239;1254;65023;-58
2024/04/01 06:10:16;;;;;;;20.40;6.10;;;;;;;16.07;52.15;99966.85;105222;1254;72252;-59
2024/04/01 06:12:43;;;;;;;18.70;6.30;;;;;;;16.11;52.35;99964.35;105342;1254;75059;-59
2024/04/01 06:15:11;;;;;;;24.00;6.70;;;;;;;16.16;52.13;99962.39;105255;1254;61600;-57
2024/04/01 06:17:39;;;;;;;17.60;6.80;;;;;;;16.21;52.06;99959.55;105294;1254;61244;-61
2024/04/01 06:20:10;;;;;;;22.10;6.80;;;;;;;16.26;51.87;99957.58;105312;1259;76857;-56
2024/04/01 06:22:37;;;;;;;22.70;6.80;;;;;;;16.31;51.98;99958.43;109273;1254;61860;-58
2024/04/01 06:25:06;;;;;;;16.40;5.90;;;;;;;16.36;51.92;99961.20;109200;1254;62612;-57
2024/04/01 06:27:33;;;;;;;18.70;6.50;;;;;;;16.43;51.82;99959.18;106359;1254;62369;-57
2024/04/01 06:30:01;;;;;;;19.40;6.30;;;;;;;16.49;51.79;99975.70;105011;1253;61195;-61
2024/04/01 06:32:28;;;;;;;20.70;6.50;;;;;;;16.52;51.63;99980.97;105178;1254;66152;-58
2024/04/01 06:34:57;;;;;;;21.00;6.90;;;;;;;16.55;51.56;99971.86;105050;1257;64148;-60
2024/04/01 06:37:24;;;;;;;18.60;7.40;;;;;;;16.58;51.39;99976.70;109206;1254;62451;-55
2024/04/01 06:39:55;;;;;;;16.50;6.60;;;;;;;16.63;51.51;99975.58;109087;1257;59423;-56
2024/04/01 06:42:22;;;;;;;25.90;6.40;;;;;;;16.77;51.53;99970.11;109047;1254;59577;-55
2024/04/01 06:44:49;;;;;;;19.00;6.00;;;;;;;16.94;51.12;99967.33;109093;1254;64414;-55
2024/04/01 06:47:18;;;;;;;15.40;5.80;;;;;;;17.04;50.84;99966.02;109154;1254;61920;-53
2024/04/01 06:49:45;;;;;;;18.50;6.20;;;;;;;17.13;50.71;99967.41;109196;1254;63877;-54
2024/04/01 06:52:13;;;;;;;23.30;7.10;;;;;;;17.21;50.56;99970.75;109181;1252;61010;-55
2024/04/01 06:54:40;;;;;;;20.80;6.10;;;;;;;17.30;50.59;99976.95;107596;1257;61359;-57
2024/04/01 06:57:08;;;;;;;15.50;6.00;;;;;;;17.35;50.05;99976.45;107060;1257;77114;-56
2024/04/01 06:59:36;;;;;;;21.60;6.10;;;;;;;17.39;50.10;99976.17;105526;1254;72635;-55
2024/04/01 07:02:03;;;;;;;14.10;6.20;;;;;;;17.43;50.18;99976.30;106359;1258;64914;-58
2024/04/01 07:04:31;;;;;;;22.20;6.40;;;;;;;17.49;50.29;99982.66;105383;1251;61424;-55
2024/04/01 07:06:59;;;;;;;22.20;6.70;;;;;;;17.56;50.18;99984.05;105377;1255;61154;-55
2024/04/01 07:09:26;;;;;;;19.10;5.80;;;;;;;17.62;50.11;99982.03;105794;1257;77007;-54
2024/04/01 07:11:54;;;;;;;14.30;6.40;;;;;;;17.66;49.97;99984.92;105229;1252;73901;-57
2024/04/01 07:14:22;;;;;;;23.10;6.00;;;;;;;17.73;49.90;99986.70;105288;1251;76017;-57
2024/04/01 07:16:49;;;;;;;23.20;7.00;;;;;;;17.77;49.57;99987.36;105204;1257;61208;-56
2024/04/01 07:19:17;;;;;;;18.40;6.30;;;;;;;17.81;49.62;99988.32;109073;1257;257235;-57
2024/04/01 07:23:34;;;;;;;25.50;7.50;;;;;;;17.62;50.41;99991.87;101893;1294;601221;-54
2024/04/01 07:26:02;;;;;;;22.60;7.10;;;;;;;17.99;49.78;99990.80;104916;1253;59957;-56
2024/04/01 07:28:29;;;;;;;20.30;7.20;;;;;;;18.11;49.29;99988.62;105009;1259;60053;-53
2024/04/01 07:31:07;;;;;;;28.00;7.70;;;;;;;18.17;48.93;99985.59;104980;1260;66409;-57
2024/04/01 07:33:35;;;;;;;19.30;6.00;;;;;;;18.22;48.71;99987.44;107715;1256;68518;-59
2024/04/01 07:36:03;;;;;;;19.20;6.50;;;;;;;18.27;48.58;99983.55;104989;1260;181192;-57
2024/04/01 07:38:30;;;;;;;20.50;6.50;;;;;;;18.32;48.52;99979.38;107155;1253;59875;-55
2024/04/01 07:40:58;;;;;;;20.20;7.20;;;;;;;18.39;48.55;99980.29;105183;1258;62404;-48
2024/04/01 07:43:26;;;;;;;17.30;7.00;;;;;;;18.45;48.58;99979.43;105185;1256;64395;-57
2024/04/01 07:45:54;;;;;;;25.10;6.30;;;;;;;18.55;48.45;99979.11;105693;1253;62595;-55
2024/04/01 07:48:23;;;;;;;21.30;7.00;;;;;;;18.64;48.04;99975.90;105765;1257;64526;-57
2024/04/01 07:50:51;;;;;;;16.70;5.80;;;;;;;18.73;48.18;99978.32;105322;1256;60957;-55
2024/04/01 07:53:19;;;;;;;18.40;6.90;;;;;;;18.82;47.84;99977.70;105193;1253;62253;-57
2024/04/01 07:55:47;;;;;;;16.50;7.10;;;;;;;18.88;47.61;99978.70;105714;1256;76082;-55
2024/04/01 07:58:15;;;;;;;18.10;7.10;;;;;;;18.93;47.55;99978.95;105863;1254;61902;-55
2024/04/01 08:00:42;;;;;;;27.00;6.90;;;;;;;19.00;47.49;99981.83;106080;1253;62565;-56
2024/04/01 08:03:12;;;;;;;24.50;7.10;;;;;;;19.10;47.54;99983.30;105262;1254;60450;-56
2024/04/01 08:05:40;;;;;;;16.80;7.70;;;;;;;19.22;47.34;99981.40;105568;1251;60517;-56
2024/04/01 08:08:09;;;;;;;17.70;7.90;;;;;;;19.31;46.97;99977.15;105348;1253;65271;-56
2024/04/01 08:10:37;;;;;;;22.00;7.60;;;;;;;19.40;46.79;99980.85;105394;1253;61857;-56
2024/04/01 08:13:05;;;;;;;28.90;7.90;;;;;;;19.49;46.55;99981.39;105445;1258;74835;-55
2024/04/01 08:15:32;;;;;;;21.10;7.20;;;;;;;19.58;46.44;99983.89;108053;1257;60540;-54
2024/04/01 08:18:00;;;;;;;17.30;6.60;;;;;;;19.65;46.30;99979.57;105362;1258;60393;-56
2024/04/01 08:20:28;;;;;;;19.70;6.70;;;;;;;19.74;45.83;99979.90;105177;1257;76017;-56
2024/04/01 08:22:55;;;;;;;17.90;6.90;;;;;;;19.79;45.89;99974.77;105149;1254;69182;-56
2024/04/01 08:25:23;;;;;;;18.50;6.20;;;;;;;19.87;45.84;99976.89;105137;1257;62612;-60
2024/04/01 08:27:50;;;;;;;29.30;7.70;;;;;;;19.95;45.82;99974.58;104966;1254;60450;-56
2024/04/01 08:30:18;;;;;;;18.80;6.30;;;;;;;20.07;45.70;99972.33;105122;1257;62217;-63
2024/04/01 08:32:45;;;;;;;15.70;6.00;;;;;;;20.17;45.43;99973.13;105280;1257;65028;-57
2024/04/01 08:35:13;;;;;;;25.20;6.80;;;;;;;20.24;45.13;99967.35;105245;1257;62578;-60
2024/04/01 08:37:40;;;;;;;22.70;6.80;;;;;;;20.33;45.08;99979.06;105241;1254;64302;-60
2024/04/01 08:40:09;;;;;;;20.80;6.50;;;;;;;20.45;45.39;99975.42;105273;1253;61977;-59
2024/04/01 08:42:37;;;;;;;22.20;6.50;;;;;;;20.58;45.51;99974.23;105170;1253;61651;-59
2024/04/01 08:45:06;;;;;;;21.40;6.40;;;;;;;20.72;45.11;99978.84;105315;1254;66524;-56
2024/04/01 08:47:38;;;;;;;21.20;7.20;;;;;;;20.85;44.44;99976.17;105250;1254;72361;-59
2024/04/01 08:50:08;;;;;;;22.40;6.60;;;;;;;20.95;44.50;99975.05;106305;1254;64110;-57
2024/04/01 08:52:41;;;;;;;22.60;6.70;;;;;;;21.08;44.30;99975.34;105447;1254;60526;-56
2024/04/01 08:55:08;;;;;;;23.10;7.40;;;;;;;21.22;44.27;99973.27;109305;1254;58563;-66
2024/04/01 08:57:36;;;;;;;16.60;7.00;;;;;;;21.38;43.82;99968.13;105451;1257;75992;-60
2024/04/01 09:00:05;;;;;;;17.60;6.10;;;;;;;21.50;43.42;99964.77;105449;1254;72517;-61
2024/04/01 09:02:32;;;;;;;21.90;7.00;;;;;;;21.59;42.80;99963.27;105488;1254;74885;-62
2024/04/01 09:05:00;;;;;;;21.00;6.70;;;;;;;21.67;42.77;99959.48;105800;1254;60596;-63
2024/04/01 09:07:27;;;;;;;22.60;7.10;;;;;;;21.78;42.64;99954.86;105184;1254;60554;-73
2024/04/01 09:09:55;;;;;;;22.80;6.80;;;;;;;21.88;43.02;99953.62;106474;1254;76219;-58
2024/04/01 09:12:23;;;;;;;19.40;6.10;;;;;;;21.99;42.17;99948.73;105043;1256;60540;-59
2024/04/01 09:14:51;;;;;;;21.70;7.30;;;;;;;22.11;42.32;99944.19;105169;1256;64206;-64
2024/04/01 09:17:28;;;;;;;23.90;7.70;;;;;;;22.23;42.15;99938.56;109283;1253;58241;-63
2024/04/01 09:20:02;;;;;;;19.70;7.00;;;;;;;22.38;41.85;99941.80;109296;1254;62452;-62
2024/04/01 09:22:31;;;;;;;23.70;7.20;;;;;;;22.53;41.65;99941.67;106277;1253;75154;-63
2024/04/01 09:24:59;;;;;;;23.40;7.20;;;;;;;22.67;41.57;99940.74;105338;1256;62035;-62
2024/04/01 09:27:27;;;;;;;27.60;7.10;;;;;;;22.82;41.30;99939.40;107129;1256;66170;-61
2024/04/01 09:29:54;;;;;;;19.50;6.50;;;;;;;22.96;41.29;99935.27;105295;1256;60544;-56
2024/04/01 09:32:22;;;;;;;24.30;7.00;;;;;;;23.10;41.01;99933.27;105105;1254;60692;-57
2024/04/01 09:34:49;;;;;;;21.60;7.60;;;;;;;23.20;40.46;99929.51;105178;1256;65293;-60
2024/04/01 09:37:17;;;;;;;16.80;6.30;;;;;;;23.26;40.48;99926.60;109012;1256;60432;-56
2024/04/01 09:39:44;;;;;;;22.60;6.90;;;;;;;23.37;40.35;99928.02;109022;1254;74936;-49
2024/04/01 09:42:13;;;;;;;24.60;7.30;;;;;;;23.45;40.13;99925.81;109021;1255;59216;-49
2024/04/01 09:44:41;;;;;;;28.70;7.20;;;;;;;23.52;40.13;99926.66;109015;1253;60343;-50
2024/04/01 09:47:08;;;;;;;19.70;6.80;;;;;;;23.61;40.19;99920.22;108977;1260;67070;-51
2024/04/01 09:49:36;;;;;;;19.20;6.90;;;;;;;23.71;39.95;99920.59;109055;1253;72434;-47
2024/04/01 09:52:03;;;;;;;21.60;7.30;;;;;;;23.79;39.94;99918.83;106844;1259;73898;-45
2024/04/01 09:54:33;;;;;;;24.90;7.20;;;;;;;23.89;39.88;99916.94;106708;1261;60618;-46
2024/04/01 09:57:01;;;;;;;21.70;6.50;;;;;;;24.04;39.65;99908.89;105039;1253;61180;-48
2024/04/01 09:59:47;;;;;;;17.50;7.00;;;;;;;24.18;39.18;99906.45;105073;1259;63774;-46
2024/04/01 10:02:24;;;;;;;16.90;6.70;;;;;;;24.32;39.28;99904.28;105096;1256;63804;-55
2024/04/01 10:05:10;;;;;;;21.80;6.20;;;;;;;24.45;39.15;99900.19;104992;1256;74988;-56
2024/04/01 10:07:56;;;;;;;;;;;;;;;24.58;38.95;99895.83;105233;1258;60502;-54
2024/04/01 10:11:02;;;;;;;27.80;7.10;;;;;;;24.69;37.84;99895.38;105059;1258;61975;-54
2024/04/01 10:13:58;;;;;;;29.50;7.20;;;;;;;24.67;37.45;99893.16;105087;1259;67161;-57
2024/04/01 10:16:58;;;;;;;23.40;7.40;;;;;;;24.62;37.56;99890.45;107354;1253;63392;-56
2024/04/01 10:19:44;;;;;;;20.40;6.30;;;;;;;24.60;37.62;99887.86;105029;1258;66008;-54
2024/04/01 10:22:21;;;;;;;;;;;;;;;24.60;37.65;99885.50;105311;1254;60644;-56
2024/04/01 10:24:58;;;;;;;21.80;6.90;;;;;;;24.63;37.82;99880.54;105195;1253;60488;-55
2024/04/01 10:27:51;;;;;;;16.70;6.90;;;;;;;24.71;37.83;99880.11;105709;1256;65309;-57
2024/04/01 10:30:40;;;;;;;28.70;7.50;;;;;;;24.85;38.02;99885.26;105950;1259;60444;-57
2024/04/01 10:33:36;;;;;;;30.50;7.80;;;;;;;25.02;37.40;99878.83;105192;1254;64190;-56
2024/04/01 10:36:10;;;;;;;29.90;8.00;;;;;;;25.17;37.17;99876.41;105288;1256;60332;-68
2024/04/01 10:39:03;;;;;;;24.40;8.00;;;;;;;25.31;37.43;99872.70;105842;1257;63321;-64
2024/04/01 10:41:40;;;;;;;18.30;7.00;;;;;;;25.46;36.90;99872.23;107334;1257;67625;-66
2024/04/01 10:44:28;;;;;;;19.70;8.00;;;;;;;25.59;36.46;99867.86;105422;1254;63397;-65
2024/04/01 10:47:05;;;;;;;21.60;6.40;;;;;;;25.73;36.51;99866.40;105737;1260;62755;-72
2024/04/01 10:49:33;;;;;;;19.70;7.30;;;;;;;25.85;36.16;99864.07;105113;1254;60450;-71
2024/04/01 10:52:34;;;;;;;23.70;8.20;;;;;;;25.95;36.16;99863.15;105334;1255;61665;-61
2024/04/01 10:55:04;;;;;;;27.90;7.50;;;;;;;26.01;35.12;99861.10;105307;1254;76283;-59
2024/04/01 10:58:20;;;;;;;23.90;7.50;;;;;;;26.02;36.49;99861.96;105522;1258;72382;-63
2024/04/01 11:01:26;;;;;;;27.30;8.00;;;;;;;26.05;36.57;99858.70;106174;1259;73676;-63
2024/04/01 11:04:06;;;;;;;23.60;8.10;;;;;;;26.03;36.30;99860.05;105817;1254;60531;-61
2024/04/01 11:06:37;;;;;;;24.30;8.00;;;;;;;25.99;35.59;99855.55;105591;1255;60509;-60
2024/04/01 11:09:12;;;;;;;22.20;7.80;;;;;;;25.97;35.63;99851.68;106433;1258;76477;-61
2024/04/01 11:11:47;;;;;;;25.90;8.80;;;;;;;25.97;35.68;99854.16;105344;1259;60581;-61
2024/04/01 11:14:15;;;;;;;26.10;7.60;;;;;;;25.99;35.28;99851.29;107807;1254;66031;-63
2024/04/01 11:16:43;;;;;;;27.50;7.90;;;;;;;26.00;35.40;99848.23;105161;1254;60488;-62
2024/04/01 11:19:23;;;;;;;27.50;8.20;;;;;;;26.00;35.38;99849.77;105312;1260;62714;-61
2024/04/01 11:21:51;;;;;;;28.10;8.70;;;;;;;26.01;35.71;99847.41;105018;1260;65527;-63
2024/04/01 11:24:33;;;;;;;23.70;8.50;;;;;;;26.04;35.94;99842.24;109151;1254;72348;-61
2024/04/01 11:27:06;;;;;;;23.50;7.60;;;;;;;26.11;36.02;99844.39;109227;1253;74823;-67
2024/04/01 11:29:57;;;;;;;27.40;9.20;;;;;;;26.20;35.77;99835.64;109267;1257;59895;-63
2024/04/01 11:32:24;;;;;;;25.10;8.20;;;;;;;26.31;35.27;99831.21;108971;1254;58602;-66